Time;durP1;ratioP1;P1;durP2;ratioP2;P2;SDS_P1;SDS_P2;PMS_P1;PMS_P2;Temp;Humidity;BMP_temperature;BMP_pressure;BME280_temperature;BME280_humidity;BME280_pressure;Samples;Min_cycle;Max_cycle;Signal;HPM_P1;HPM_P2
2023/12/07 00:01:50;;;;;;;41.50;17.67;;;;;;;;;;5041739;28;20033;-55
2023/12/07 00:04:18;;;;;;;41.25;18.05;;;;;;;;;;5039415;28;20038;-54
2023/12/07 00:06:45;;;;;;;37.88;15.45;;;;;;;;;;5041433;28;20430;-52
2023/12/07 00:09:13;;;;;;;42.72;17.83;;;;;;;;;;5044069;28;20116;-55
2023/12/07 00:11:41;;;;;;;39.20;16.58;;;;;;;;;;5043284;28;20038;-53
2023/12/07 00:14:08;;;;;;;44.42;17.98;;;;;;;;;;5043868;28;20049;-54
2023/12/07 00:16:36;;;;;;;44.28;19.08;;;;;;;;;;5042116;28;20045;-54
2023/12/07 00:19:03;;;;;;;46.28;18.08;;;;;;;;;;5021701;28;20142;-51
2023/12/07 00:21:31;;;;;;;50.75;19.63;;;;;;;;;;5039961;28;20048;-56
2023/12/07 00:23:58;;;;;;;56.45;19.70;;;;;;;;;;5039165;28;20086;-55
2023/12/07 00:26:26;;;;;;;48.00;18.83;;;;;;;;;;5022915;28;20056;-54
2023/12/07 00:28:54;;;;;;;51.08;19.67;;;;;;;;;;5040534;28;20394;-56
2023/12/07 00:31:21;;;;;;;49.00;19.35;;;;;;;;;;5042363;28;20160;-55
2023/12/07 00:33:49;;;;;;;45.88;16.42;;;;;;;;;;5030271;28;20571;-54
2023/12/07 00:36:16;;;;;;;54.70;20.08;;;;;;;;;;5038645;28;20124;-57
2023/12/07 00:38:44;;;;;;;53.90;19.58;;;;;;;;;;5043214;28;20088;-52
2023/12/07 00:41:11;;;;;;;54.67;21.77;;;;;;;;;;5040366;28;20045;-54
2023/12/07 00:43:39;;;;;;;60.65;20.45;;;;;;;;;;5040131;28;20079;-56
2023/12/07 00:46:09;;;;;;;57.90;21.30;;;;;;;;;;5040045;28;20049;-55
2023/12/07 00:48:37;;;;;;;56.95;21.08;;;;;;;;;;5037419;28;20037;-55
2023/12/07 00:51:06;;;;;;;54.92;19.80;;;;;;;;;;5041487;28;20487;-56
2023/12/07 00:53:33;;;;;;;56.05;20.00;;;;;;;;;;5037785;28;20065;-55
2023/12/07 00:56:03;;;;;;;55.97;21.25;;;;;;;;;;5040666;28;20057;-55
2023/12/07 00:58:31;;;;;;;59.20;21.25;;;;;;;;;;5042166;28;20067;-56
2023/12/07 01:00:58;;;;;;;59.58;21.70;;;;;;;;;;5032903;28;20087;-54
2023/12/07 01:03:26;;;;;;;56.58;20.80;;;;;;;;;;5038462;28;20036;-54
2023/12/07 01:05:54;;;;;;;55.58;20.35;;;;;;;;;;5038039;28;20052;-55
2023/12/07 01:08:22;;;;;;;53.28;17.33;;;;;;;;;;5040219;28;20098;-55
2023/12/07 01:10:49;;;;;;;53.35;18.45;;;;;;;;;;5039621;28;20117;-53
2023/12/07 01:13:17;;;;;;;44.45;16.75;;;;;;;;;;5039302;28;20033;-55
2023/12/07 01:15:45;;;;;;;50.38;18.42;;;;;;;;;;5038262;28;20095;-55
2023/12/07 01:18:12;;;;;;;45.28;17.45;;;;;;;;;;5040131;28;20478;-56
2023/12/07 01:20:40;;;;;;;59.35;21.20;;;;;;;;;;5039103;28;20044;-55
2023/12/07 01:23:11;;;;;;;52.45;17.50;;;;;;;;;;5038191;28;20037;-55
2023/12/07 01:25:42;;;;;;;47.97;17.13;;;;;;;;;;5041361;28;20053;-54
2023/12/07 01:28:10;;;;;;;55.80;20.13;;;;;;;;;;5037721;28;20046;-55
2023/12/07 01:30:38;;;;;;;51.13;18.30;;;;;;;;;;5042790;28;20045;-55
2023/12/07 01:33:05;;;;;;;52.28;18.08;;;;;;;;;;5039583;28;20041;-56
2023/12/07 01:35:33;;;;;;;47.40;16.85;;;;;;;;;;5039762;28;20037;-56
2023/12/07 01:38:01;;;;;;;57.20;17.92;;;;;;;;;;5038096;28;20072;-54
2023/12/07 01:40:28;;;;;;;68.88;21.50;;;;;;;;;;5038473;28;20072;-53
2023/12/07 01:42:56;;;;;;;62.35;20.95;;;;;;;;;;5038469;28;20503;-55
2023/12/07 01:45:24;;;;;;;63.95;21.08;;;;;;;;;;5038010;28;20033;-55
2023/12/07 01:47:53;;;;;;;82.20;24.08;;;;;;;;;;5039845;28;20099;-55
2023/12/07 01:50:23;;;;;;;76.47;22.52;;;;;;;;;;5040525;28;20048;-55
2023/12/07 01:52:55;;;;;;;75.40;23.90;;;;;;;;;;5037721;28;20161;-56
2023/12/07 01:55:23;;;;;;;67.68;23.33;;;;;;;;;;5038759;28;20041;-55
2023/12/07 01:57:51;;;;;;;68.90;22.25;;;;;;;;;;5039727;28;20124;-56
2023/12/07 02:00:19;;;;;;;63.40;21.98;;;;;;;;;;5036169;28;20051;-54
2023/12/07 02:02:47;;;;;;;70.47;23.98;;;;;;;;;;5037839;28;20124;-56
2023/12/07 02:05:15;;;;;;;64.80;20.95;;;;;;;;;;5040642;28;20037;-54
2023/12/07 02:07:43;;;;;;;60.63;21.35;;;;;;;;;;5024534;28;20402;-56
2023/12/07 02:10:13;;;;;;;65.97;21.23;;;;;;;;;;5042638;28;20088;-55
2023/12/07 02:12:41;;;;;;;58.03;20.88;;;;;;;;;;5038392;28;20088;-56
2023/12/07 02:15:11;;;;;;;64.60;21.65;;;;;;;;;;5042325;28;20431;-54
2023/12/07 02:17:41;;;;;;;62.05;19.48;;;;;;;;;;5042524;28;20039;-55
2023/12/07 02:20:12;;;;;;;52.38;18.08;;;;;;;;;;5042340;28;20051;-55
2023/12/07 02:22:43;;;;;;;59.60;19.70;;;;;;;;;;5040076;28;20033;-56
2023/12/07 02:25:11;;;;;;;46.58;17.15;;;;;;;;;;5037190;28;20048;-56
2023/12/07 02:27:43;;;;;;;64.07;21.00;;;;;;;;;;5035316;28;20073;-55
2023/12/07 02:30:11;;;;;;;55.95;20.52;;;;;;;;;;5039592;28;20033;-56
2023/12/07 02:32:40;;;;;;;55.67;20.08;;;;;;;;;;5040074;28;20033;-56
2023/12/07 02:35:09;;;;;;;61.90;20.65;;;;;;;;;;5042961;28;20036;-56
2023/12/07 02:37:41;;;;;;;55.15;20.00;;;;;;;;;;5041209;28;20033;-57
2023/12/07 02:40:10;;;;;;;59.10;20.08;;;;;;;;;;5052333;28;20045;-55
2023/12/07 02:42:40;;;;;;;52.30;19.67;;;;;;;;;;5035247;28;20095;-54
2023/12/07 02:45:09;;;;;;;56.97;19.73;;;;;;;;;;5038528;28;20578;-57
2023/12/07 02:47:36;;;;;;;58.03;20.25;;;;;;;;;;5038994;28;20037;-55
2023/12/07 02:50:05;;;;;;;60.33;19.95;;;;;;;;;;5036551;28;20458;-56
2023/12/07 02:52:33;;;;;;;62.45;20.35;;;;;;;;;;5024935;28;20060;-57
2023/12/07 02:55:01;;;;;;;53.50;18.00;;;;;;;;;;5036213;28;20040;-56
2023/12/07 02:57:29;;;;;;;59.28;19.25;;;;;;;;;;5035886;28;20440;-57
2023/12/07 02:59:56;;;;;;;54.22;18.77;;;;;;;;;;5037477;28;20096;-56
2023/12/07 03:02:24;;;;;;;59.35;19.35;;;;;;;;;;5040291;28;20056;-57
2023/12/07 03:04:52;;;;;;;53.25;16.80;;;;;;;;;;5035333;28;20100;-57
2023/12/07 03:07:20;;;;;;;53.00;17.38;;;;;;;;;;5039224;28;20037;-56
2023/12/07 03:09:47;;;;;;;39.40;13.30;;;;;;;;;;5037982;28;20048;-57
2023/12/07 03:12:15;;;;;;;48.67;17.60;;;;;;;;;;5034778;28;20495;-56
2023/12/07 03:14:43;;;;;;;49.50;15.90;;;;;;;;;;5039207;28;20041;-57
2023/12/07 03:17:11;;;;;;;43.75;13.15;;;;;;;;;;5037216;28;20557;-57
2023/12/07 03:19:42;;;;;;;55.45;18.17;;;;;;;;;;5036011;28;20033;-57
2023/12/07 03:22:09;;;;;;;47.40;15.80;;;;;;;;;;5035167;28;20045;-58
2023/12/07 03:24:37;;;;;;;41.35;14.20;;;;;;;;;;5040444;28;20046;-56
2023/12/07 03:27:05;;;;;;;41.75;14.02;;;;;;;;;;5036547;28;20129;-57
2023/12/07 03:29:33;;;;;;;35.53;11.88;;;;;;;;;;5039064;28;20080;-57
2023/12/07 03:32:00;;;;;;;48.08;15.38;;;;;;;;;;5036862;28;20061;-57
2023/12/07 03:34:28;;;;;;;37.78;13.00;;;;;;;;;;5038708;28;20044;-58
2023/12/07 03:36:56;;;;;;;50.05;16.02;;;;;;;;;;5036943;28;20521;-57
2023/12/07 03:39:25;;;;;;;51.00;14.65;;;;;;;;;;5037103;28;20100;-56
2023/12/07 03:41:53;;;;;;;42.33;14.40;;;;;;;;;;5039142;28;20686;-57
2023/12/07 03:44:20;;;;;;;43.20;14.05;;;;;;;;;;5036019;28;20391;-57
2023/12/07 03:46:48;;;;;;;39.33;13.25;;;;;;;;;;5034658;28;20522;-55
2023/12/07 03:49:15;;;;;;;43.25;13.73;;;;;;;;;;5041057;28;20506;-55
2023/12/07 03:51:43;;;;;;;45.67;15.35;;;;;;;;;;5044906;28;20037;-56
2023/12/07 03:54:11;;;;;;;49.20;16.27;;;;;;;;;;5030666;28;20045;-56
2023/12/07 03:56:40;;;;;;;39.72;14.52;;;;;;;;;;5034330;28;20124;-56
2023/12/07 03:59:08;;;;;;;43.08;14.20;;;;;;;;;;5017848;28;20454;-57
2023/12/07 04:01:35;;;;;;;47.90;14.82;;;;;;;;;;5035230;28;20041;-55
2023/12/07 04:04:04;;;;;;;48.78;15.00;;;;;;;;;;5035169;28;20446;-56
2023/12/07 04:06:32;;;;;;;40.35;14.32;;;;;;;;;;5034978;28;20071;-55
2023/12/07 04:09:00;;;;;;;47.50;15.35;;;;;;;;;;5035272;28;20042;-56
2023/12/07 04:11:27;;;;;;;42.58;14.68;;;;;;;;;;5037282;28;20457;-56
2023/12/07 04:13:55;;;;;;;52.85;16.23;;;;;;;;;;5039104;28;20479;-56
2023/12/07 04:16:23;;;;;;;50.95;15.25;;;;;;;;;;5038998;28;20112;-56
2023/12/07 04:18:50;;;;;;;49.90;15.32;;;;;;;;;;5039201;28;20099;-57
2023/12/07 04:21:18;;;;;;;47.70;15.10;;;;;;;;;;5040371;28;20045;-56
2023/12/07 04:23:45;;;;;;;48.33;15.05;;;;;;;;;;5039979;28;20034;-58
2023/12/07 04:26:14;;;;;;;43.53;13.65;;;;;;;;;;5038741;28;20045;-57
2023/12/07 04:28:42;;;;;;;46.08;14.57;;;;;;;;;;5038796;28;20116;-57
2023/12/07 04:31:09;;;;;;;39.80;14.07;;;;;;;;;;5042226;28;20099;-57
2023/12/07 04:33:37;;;;;;;40.72;13.48;;;;;;;;;;5042794;28;20037;-57
2023/12/07 04:36:05;;;;;;;47.00;14.20;;;;;;;;;;5038999;28;20128;-57
2023/12/07 04:38:33;;;;;;;32.95;12.23;;;;;;;;;;5040340;28;20042;-57
2023/12/07 04:41:00;;;;;;;32.08;11.38;;;;;;;;;;5039733;28;20037;-56
2023/12/07 04:43:28;;;;;;;42.13;13.45;;;;;;;;;;5039590;28;20045;-56
2023/12/07 04:45:55;;;;;;;36.55;13.88;;;;;;;;;;5021980;28;20045;-56
2023/12/07 04:48:23;;;;;;;30.75;11.20;;;;;;;;;;5041612;28;20037;-57
2023/12/07 04:50:51;;;;;;;32.05;11.52;;;;;;;;;;5040425;28;20099;-58
2023/12/07 04:53:18;;;;;;;32.58;12.23;;;;;;;;;;5039537;28;20048;-57
2023/12/07 04:55:49;;;;;;;30.15;11.27;;;;;;;;;;5020714;28;20049;-71
2023/12/07 04:58:17;;;;;;;26.92;10.35;;;;;;;;;;5040536;28;20049;-72
2023/12/07 05:00:45;;;;;;;26.33;10.63;;;;;;;;;;5038841;28;20511;-72
2023/12/07 05:03:12;;;;;;;25.88;9.80;;;;;;;;;;5038813;28;20037;-72
2023/12/07 05:05:40;;;;;;;27.38;10.20;;;;;;;;;;5040873;28;20387;-72
2023/12/07 05:08:08;;;;;;;24.02;8.82;;;;;;;;;;5019282;28;20042;-72
2023/12/07 05:10:36;;;;;;;22.30;8.55;;;;;;;;;;5039827;28;20045;-70
2023/12/07 05:13:03;;;;;;;26.63;8.80;;;;;;;;;;5039495;28;20055;-72
2023/12/07 05:15:31;;;;;;;31.48;10.35;;;;;;;;;;5021137;28;20088;-71
2023/12/07 05:17:58;;;;;;;30.48;10.30;;;;;;;;;;5040443;28;20206;-71
2023/12/07 05:20:28;;;;;;;25.15;9.93;;;;;;;;;;5042089;28;20039;-71
2023/12/07 05:22:55;;;;;;;20.52;8.43;;;;;;;;;;5039595;28;20511;-71
2023/12/07 05:25:23;;;;;;;24.35;9.73;;;;;;;;;;5040307;28;20043;-71
2023/12/07 05:27:50;;;;;;;25.67;8.27;;;;;;;;;;5038954;28;20037;-72
2023/12/07 05:30:18;;;;;;;24.13;9.70;;;;;;;;;;5037993;28;20041;-72
2023/12/07 05:32:47;;;;;;;23.73;9.35;;;;;;;;;;5037620;28;20037;-71
2023/12/07 05:35:14;;;;;;;25.13;10.00;;;;;;;;;;5036221;28;20570;-71
2023/12/07 05:37:42;;;;;;;26.25;10.02;;;;;;;;;;5039013;28;20040;-71
2023/12/07 05:40:12;;;;;;;27.60;9.52;;;;;;;;;;5037525;28;20049;-71
2023/12/07 05:42:40;;;;;;;27.58;9.20;;;;;;;;;;5037760;28;20193;-71
2023/12/07 05:45:09;;;;;;;21.00;9.20;;;;;;;;;;5021681;28;20068;-71
2023/12/07 05:47:37;;;;;;;23.65;9.00;;;;;;;;;;5039192;28;20128;-70
2023/12/07 05:50:05;;;;;;;22.25;9.73;;;;;;;;;;5038626;28;20398;-71
2023/12/07 05:52:32;;;;;;;23.58;8.90;;;;;;;;;;5040549;28;20076;-71
2023/12/07 05:55:01;;;;;;;21.13;8.75;;;;;;;;;;5039886;28;20048;-71
2023/12/07 05:57:28;;;;;;;24.67;9.82;;;;;;;;;;5029109;28;20041;-71
2023/12/07 05:59:56;;;;;;;27.45;10.13;;;;;;;;;;5038769;28;20438;-71
2023/12/07 06:02:23;;;;;;;22.05;8.60;;;;;;;;;;5021771;28;20037;-71
2023/12/07 06:04:51;;;;;;;23.75;9.52;;;;;;;;;;5037034;28;20053;-71
2023/12/07 06:07:19;;;;;;;21.50;9.73;;;;;;;;;;5041653;28;20475;-71
2023/12/07 06:09:47;;;;;;;20.45;8.10;;;;;;;;;;5038365;28;20152;-72
2023/12/07 06:12:14;;;;;;;20.27;8.73;;;;;;;;;;5038425;28;20045;-71
2023/12/07 06:14:42;;;;;;;33.08;13.18;;;;;;;;;;5020296;28;20390;-71
2023/12/07 06:17:09;;;;;;;20.67;9.32;;;;;;;;;;5037807;28;20116;-71
2023/12/07 06:19:37;;;;;;;27.33;12.50;;;;;;;;;;5021333;28;20056;-71
2023/12/07 06:22:05;;;;;;;20.45;8.65;;;;;;;;;;5037446;28;20431;-71
2023/12/07 06:24:33;;;;;;;17.50;8.27;;;;;;;;;;5038245;28;20497;-66
2023/12/07 06:27:01;;;;;;;14.65;7.07;;;;;;;;;;5040186;28;20056;-67
2023/12/07 06:29:29;;;;;;;19.33;7.82;;;;;;;;;;5041036;28;20040;-71
2023/12/07 06:31:58;;;;;;;19.95;9.32;;;;;;;;;;5040818;28;20086;-73
2023/12/07 06:34:25;;;;;;;15.50;8.43;;;;;;;;;;5041261;28;20502;-72
2023/12/07 06:36:53;;;;;;;15.73;7.85;;;;;;;;;;5052155;28;20045;-72
2023/12/07 06:39:20;;;;;;;16.33;8.00;;;;;;;;;;5042322;28;20040;-72
2023/12/07 06:41:48;;;;;;;16.17;8.10;;;;;;;;;;5034485;28;20060;-72
2023/12/07 06:44:15;;;;;;;16.40;7.70;;;;;;;;;;5034216;28;20059;-72
2023/12/07 06:46:43;;;;;;;23.80;11.48;;;;;;;;;;5050849;28;20056;-73
2023/12/07 06:49:12;;;;;;;23.27;10.98;;;;;;;;;;5037131;28;20050;-71
2023/12/07 06:51:40;;;;;;;18.67;8.93;;;;;;;;;;5052202;28;20514;-71
2023/12/07 06:54:08;;;;;;;17.60;8.38;;;;;;;;;;5052097;28;20051;-72
2023/12/07 06:56:35;;;;;;;18.60;9.23;;;;;;;;;;5034245;28;20048;-72
2023/12/07 06:59:03;;;;;;;15.75;7.43;;;;;;;;;;5052281;28;20033;-72
2023/12/07 07:01:31;;;;;;;13.50;6.55;;;;;;;;;;5034476;28;20047;-72
2023/12/07 07:04:00;;;;;;;14.00;6.60;;;;;;;;;;5052247;28;20049;-72
2023/12/07 07:06:28;;;;;;;15.15;7.40;;;;;;;;;;5052042;28;20037;-73
2023/12/07 07:08:55;;;;;;;18.20;9.35;;;;;;;;;;5052128;28;20475;-72
2023/12/07 07:11:28;;;;;;;16.25;8.32;;;;;;;;;;5052495;28;20041;-71
2023/12/07 07:13:56;;;;;;;19.40;9.45;;;;;;;;;;5035165;28;20393;-73
2023/12/07 07:16:24;;;;;;;13.98;6.88;;;;;;;;;;5052281;28;20094;-73
2023/12/07 07:18:51;;;;;;;15.63;7.32;;;;;;;;;;5052060;28;20072;-72
2023/12/07 07:21:19;;;;;;;17.50;8.52;;;;;;;;;;5052143;28;20095;-71
2023/12/07 07:23:47;;;;;;;16.73;8.23;;;;;;;;;;5052510;28;20475;-70
2023/12/07 07:26:17;;;;;;;17.73;8.35;;;;;;;;;;5055926;28;20045;-71
2023/12/07 07:28:45;;;;;;;18.98;9.48;;;;;;;;;;5055867;28;20501;-71
2023/12/07 07:31:13;;;;;;;19.73;10.25;;;;;;;;;;5056142;28;20037;-71
2023/12/07 07:33:40;;;;;;;15.23;8.48;;;;;;;;;;5038227;28;20044;-72
2023/12/07 07:36:08;;;;;;;18.13;9.23;;;;;;;;;;5055620;28;20040;-72
2023/12/07 07:38:36;;;;;;;15.95;8.65;;;;;;;;;;5055728;28;20278;-71
2023/12/07 07:41:03;;;;;;;18.52;8.30;;;;;;;;;;5055663;28;20040;-71
2023/12/07 07:43:31;;;;;;;18.73;9.20;;;;;;;;;;5055552;28;20041;-72
2023/12/07 07:45:58;;;;;;;17.35;7.80;;;;;;;;;;5055523;28;20049;-71
2023/12/07 07:48:26;;;;;;;20.17;9.82;;;;;;;;;;5055512;28;20045;-72
2023/12/07 07:50:54;;;;;;;21.65;9.82;;;;;;;;;;5055473;28;20103;-71
2023/12/07 07:53:21;;;;;;;17.40;9.18;;;;;;;;;;5055232;28;20076;-72
2023/12/07 07:55:49;;;;;;;14.23;7.95;;;;;;;;;;5055353;28;20041;-72
2023/12/07 07:58:16;;;;;;;21.67;11.70;;;;;;;;;;5055244;28;20040;-71
2023/12/07 08:00:46;;;;;;;26.55;11.25;;;;;;;;;;5055279;28;20041;-72
2023/12/07 08:03:14;;;;;;;18.35;9.02;;;;;;;;;;5055308;28;20049;-73
2023/12/07 08:05:41;;;;;;;18.50;10.00;;;;;;;;;;5055215;28;20041;-72
2023/12/07 08:08:10;;;;;;;25.08;12.68;;;;;;;;;;5055043;28;20406;-72
2023/12/07 08:10:39;;;;;;;19.60;8.27;;;;;;;;;;5054979;28;20037;-72
2023/12/07 08:13:22;;;;;;;22.17;9.43;;;;;;;;;;5055027;28;20055;-72
2023/12/07 08:15:50;;;;;;;16.95;9.95;;;;;;;;;;5054865;28;20071;-72
2023/12/07 08:18:19;;;;;;;19.38;9.70;;;;;;;;;;5054842;28;20074;-72
2023/12/07 08:20:46;;;;;;;17.92;10.63;;;;;;;;;;5054750;28;20119;-72
2023/12/07 08:23:14;;;;;;;16.15;9.65;;;;;;;;;;5037073;28;20041;-72
2023/12/07 08:25:43;;;;;;;15.60;8.85;;;;;;;;;;5054868;28;20037;-72
2023/12/07 08:28:11;;;;;;;16.67;9.43;;;;;;;;;;5054645;28;20059;-72
2023/12/07 08:30:38;;;;;;;17.92;8.77;;;;;;;;;;5054705;28;20072;-71
2023/12/07 08:33:06;;;;;;;20.98;9.75;;;;;;;;;;5054611;28;20051;-71
2023/12/07 08:35:34;;;;;;;22.83;10.45;;;;;;;;;;5054294;28;20558;-72
2023/12/07 08:38:02;;;;;;;17.92;9.88;;;;;;;;;;5054413;28;20129;-72
2023/12/07 08:40:30;;;;;;;25.83;10.77;;;;;;;;;;5036853;28;20566;-72
2023/12/07 08:42:57;;;;;;;21.27;10.40;;;;;;;;;;5054522;28;20049;-72
2023/12/07 08:45:25;;;;;;;29.85;15.23;;;;;;;;;;5054432;28;20044;-72
2023/12/07 08:47:53;;;;;;;27.77;14.85;;;;;;;;;;5054577;28;20079;-72
2023/12/07 08:50:21;;;;;;;17.48;8.93;;;;;;;;;;5054189;28;20521;-73
2023/12/07 08:52:49;;;;;;;16.25;9.05;;;;;;;;;;5054147;28;20037;-72
2023/12/07 08:55:26;;;;;;;15.55;8.05;;;;;;;;;;5054420;28;20045;-72
2023/12/07 08:57:54;;;;;;;17.83;8.95;;;;;;;;;;5054410;28;20128;-72
2023/12/07 09:00:24;;;;;;;17.33;9.77;;;;;;;;;;5053971;28;20044;-72
2023/12/07 09:02:54;;;;;;;26.58;12.73;;;;;;;;;;5054169;28;20041;-72
2023/12/07 09:05:22;;;;;;;39.08;18.48;;;;;;;;;;5053886;28;20041;-73
2023/12/07 09:07:50;;;;;;;41.88;18.80;;;;;;;;;;5053860;28;20124;-71
2023/12/07 09:10:17;;;;;;;24.10;12.32;;;;;;;;;;5053915;28;20111;-72
2023/12/07 09:12:45;;;;;;;22.60;13.30;;;;;;;;;;5053848;28;20349;-73
2023/12/07 09:15:12;;;;;;;19.23;11.23;;;;;;;;;;5053833;28;20106;-72
2023/12/07 09:17:40;;;;;;;20.25;11.32;;;;;;;;;;5053588;28;20538;-72
2023/12/07 09:20:12;;;;;;;17.45;9.18;;;;;;;;;;5053849;28;20051;-72
2023/12/07 09:22:43;;;;;;;17.52;8.85;;;;;;;;;;5035873;28;20072;-73
2023/12/07 09:25:11;;;;;;;23.85;11.80;;;;;;;;;;5053723;28;20086;-73
2023/12/07 09:27:39;;;;;;;17.30;9.30;;;;;;;;;;5053594;28;20098;-72
2023/12/07 09:30:10;;;;;;;18.05;8.60;;;;;;;;;;5053659;28;20033;-73
2023/12/07 09:32:39;;;;;;;14.48;8.15;;;;;;;;;;5035605;28;20418;-73
2023/12/07 09:35:08;;;;;;;32.30;20.30;;;;;;;;;;5053585;28;20045;-73
2023/12/07 09:37:35;;;;;;;18.27;11.30;;;;;;;;;;5035884;28;20060;-73
2023/12/07 09:40:04;;;;;;;14.10;7.70;;;;;;;;;;5053504;28;20552;-73
2023/12/07 09:42:32;;;;;;;13.35;8.07;;;;;;;;;;5053364;28;20052;-73
2023/12/07 09:45:04;;;;;;;15.30;8.57;;;;;;;;;;5053303;28;20505;-73
2023/12/07 09:47:34;;;;;;;16.48;8.63;;;;;;;;;;5052831;28;20375;-73
2023/12/07 09:50:08;;;;;;;18.15;9.25;;;;;;;;;;5053277;28;20033;-73
2023/12/07 09:52:36;;;;;;;13.32;7.22;;;;;;;;;;5053377;28;20414;-72
2023/12/07 09:55:04;;;;;;;13.50;6.22;;;;;;;;;;5053272;28;20048;-72
2023/12/07 09:57:32;;;;;;;12.95;7.57;;;;;;;;;;5035662;28;20037;-72
2023/12/07 10:00:00;;;;;;;18.38;8.57;;;;;;;;;;5052991;28;20041;-72
2023/12/07 10:02:33;;;;;;;13.63;6.82;;;;;;;;;;5053082;28;20072;-72
2023/12/07 10:05:09;;;;;;;13.73;7.95;;;;;;;;;;5052876;28;20124;-72
2023/12/07 10:07:40;;;;;;;20.17;12.32;;;;;;;;;;5052846;28;20045;-72
2023/12/07 10:10:08;;;;;;;17.67;10.43;;;;;;;;;;5052964;28;20039;-72
2023/12/07 10:12:36;;;;;;;15.90;9.18;;;;;;;;;;5052685;28;20494;-72
2023/12/07 10:15:19;;;;;;;15.23;7.90;;;;;;;;;;5052838;28;20403;-72
2023/12/07 10:17:48;;;;;;;18.25;9.20;;;;;;;;;;5052777;28;20228;-72
2023/12/07 10:20:16;;;;;;;16.60;8.55;;;;;;;;;;5052742;28;20037;-72
2023/12/07 10:22:44;;;;;;;15.18;8.30;;;;;;;;;;5052627;28;20040;-72
2023/12/07 10:25:12;;;;;;;12.55;7.25;;;;;;;;;;5052701;28;20094;-72
2023/12/07 10:27:43;;;;;;;11.77;6.88;;;;;;;;;;5052526;28;20126;-72
2023/12/07 10:30:11;;;;;;;19.85;10.10;;;;;;;;;;5052588;28;20044;-72
2023/12/07 10:32:40;;;;;;;13.40;7.07;;;;;;;;;;5052478;28;20055;-72
2023/12/07 10:35:09;;;;;;;12.18;7.53;;;;;;;;;;5052549;28;20112;-72
2023/12/07 10:37:37;;;;;;;13.95;8.40;;;;;;;;;;5052574;28;20041;-72
2023/12/07 10:40:05;;;;;;;14.10;7.70;;;;;;;;;;5052415;28;20047;-72
2023/12/07 10:42:35;;;;;;;22.60;12.85;;;;;;;;;;5052647;28;20116;-72
2023/12/07 10:45:07;;;;;;;12.82;7.35;;;;;;;;;;5052412;28;20045;-73
2023/12/07 10:47:38;;;;;;;18.50;11.73;;;;;;;;;;5052286;28;20041;-72
2023/12/07 10:50:10;;;;;;;12.60;8.80;;;;;;;;;;5052226;28;20041;-72
2023/12/07 10:52:45;;;;;;;13.55;7.78;;;;;;;;;;5052406;28;20053;-73
2023/12/07 10:55:27;;;;;;;18.67;12.82;;;;;;;;;;5052264;28;20041;-73
2023/12/07 10:57:56;;;;;;;15.10;8.13;;;;;;;;;;5053257;28;20064;-73
2023/12/07 11:00:27;;;;;;;13.45;7.35;;;;;;;;;;5056372;28;20041;-73
2023/12/07 11:03:11;;;;;;;12.75;7.07;;;;;;;;;;5056417;28;20189;-73
2023/12/07 11:05:39;;;;;;;11.85;6.18;;;;;;;;;;5056314;28;20041;-73
2023/12/07 11:08:08;;;;;;;14.13;7.32;;;;;;;;;;5056299;28;20452;-73
2023/12/07 11:10:44;;;;;;;13.98;7.10;;;;;;;;;;5056059;28;20044;-73
2023/12/07 11:13:19;;;;;;;14.90;6.93;;;;;;;;;;5056151;28;20048;-73
2023/12/07 11:15:47;;;;;;;10.88;6.25;;;;;;;;;;5056116;28;20037;-73
2023/12/07 11:18:15;;;;;;;11.68;6.43;;;;;;;;;;5055976;28;20059;-73
2023/12/07 11:20:45;;;;;;;10.57;6.60;;;;;;;;;;5055860;28;20548;-73
2023/12/07 11:23:16;;;;;;;12.63;7.00;;;;;;;;;;5055793;28;20095;-73
2023/12/07 11:25:44;;;;;;;12.48;6.20;;;;;;;;;;5056056;28;20099;-73
2023/12/07 11:28:12;;;;;;;12.60;7.25;;;;;;;;;;5055755;28;20556;-73
2023/12/07 11:30:43;;;;;;;13.10;7.00;;;;;;;;;;5056048;28;20065;-73
2023/12/07 11:33:12;;;;;;;11.02;6.55;;;;;;;;;;5056265;28;20401;-73
2023/12/07 11:35:58;;;;;;;12.77;7.60;;;;;;;;;;5055725;28;20076;-73
2023/12/07 11:38:25;;;;;;;11.18;6.22;;;;;;;;;;5056005;28;20049;-73
2023/12/07 11:40:55;;;;;;;11.55;6.70;;;;;;;;;;5055729;28;20040;-73
2023/12/07 11:43:38;;;;;;;11.15;6.68;;;;;;;;;;5055636;28;20041;-74
2023/12/07 11:46:07;;;;;;;11.20;6.45;;;;;;;;;;5055715;28;20120;-73
2023/12/07 11:48:34;;;;;;;13.25;7.82;;;;;;;;;;5055218;28;20490;-73
2023/12/07 11:51:10;;;;;;;17.30;9.63;;;;;;;;;;5055204;28;20041;-73
2023/12/07 11:53:38;;;;;;;13.63;8.25;;;;;;;;;;5055226;28;20088;-73
2023/12/07 11:56:07;;;;;;;19.90;11.43;;;;;;;;;;5055656;28;20068;-73
2023/12/07 11:58:36;;;;;;;14.43;8.80;;;;;;;;;;5055321;28;20117;-73
2023/12/07 12:01:08;;;;;;;13.45;8.27;;;;;;;;;;5055476;28;20068;-73
2023/12/07 12:03:37;;;;;;;16.33;10.00;;;;;;;;;;5055353;28;20115;-73
2023/12/07 12:06:05;;;;;;;20.90;12.63;;;;;;;;;;5055227;28;20106;-72
2023/12/07 12:08:33;;;;;;;14.20;8.60;;;;;;;;;;5055143;28;20510;-72
2023/12/07 12:11:01;;;;;;;13.93;9.35;;;;;;;;;;5054315;28;20049;-72
2023/12/07 12:13:29;;;;;;;10.63;6.88;;;;;;;;;;5055013;28;20460;-72
2023/12/07 12:15:57;;;;;;;17.48;10.65;;;;;;;;;;5055034;28;20033;-73
2023/12/07 12:18:30;;;;;;;11.73;7.07;;;;;;;;;;5037068;28;20063;-72
2023/12/07 12:20:59;;;;;;;9.65;5.78;;;;;;;;;;5054886;28;20041;-72
2023/12/07 12:23:28;;;;;;;15.30;9.65;;;;;;;;;;5055222;28;20045;-72
2023/12/07 12:25:57;;;;;;;10.95;6.88;;;;;;;;;;5054825;28;20415;-72
2023/12/07 12:28:24;;;;;;;11.65;7.65;;;;;;;;;;5054736;28;20532;-72
2023/12/07 12:30:52;;;;;;;10.65;7.03;;;;;;;;;;5054662;28;20127;-73
2023/12/07 12:33:20;;;;;;;10.00;5.93;;;;;;;;;;5054653;28;20055;-72
2023/12/07 12:36:00;;;;;;;12.43;7.15;;;;;;;;;;5054639;28;20033;-72
2023/12/07 12:38:28;;;;;;;10.15;6.35;;;;;;;;;;5054591;28;20063;-72
2023/12/07 12:41:08;;;;;;;10.85;7.07;;;;;;;;;;5054579;28;20052;-72
2023/12/07 12:43:36;;;;;;;12.82;8.23;;;;;;;;;;5054343;28;20123;-72
2023/12/07 12:46:04;;;;;;;16.15;10.60;;;;;;;;;;5054532;28;20052;-72
2023/12/07 12:48:34;;;;;;;14.55;9.40;;;;;;;;;;5036888;28;20040;-72
2023/12/07 12:51:14;;;;;;;15.05;9.20;;;;;;;;;;5054455;28;20120;-72
2023/12/07 12:53:46;;;;;;;13.95;8.60;;;;;;;;;;5054293;28;20091;-72
2023/12/07 12:56:19;;;;;;;14.90;9.13;;;;;;;;;;5054393;28;20037;-72
2023/12/07 12:58:46;;;;;;;14.98;9.38;;;;;;;;;;5054487;28;20038;-73
2023/12/07 13:01:15;;;;;;;12.93;7.97;;;;;;;;;;5054199;28;20094;-72
2023/12/07 13:03:45;;;;;;;11.68;7.30;;;;;;;;;;5054100;28;20087;-72
2023/12/07 13:06:14;;;;;;;11.93;7.93;;;;;;;;;;5054041;28;20048;-72
2023/12/07 13:08:43;;;;;;;14.63;8.82;;;;;;;;;;5053965;28;20411;-72
2023/12/07 13:11:15;;;;;;;15.90;9.00;;;;;;;;;;5053679;28;20061;-72
2023/12/07 13:13:42;;;;;;;18.65;11.82;;;;;;;;;;5053957;28;20049;-72
2023/12/07 13:16:14;;;;;;;21.90;12.35;;;;;;;;;;5053774;28;20048;-72
2023/12/07 13:18:42;;;;;;;29.73;15.77;;;;;;;;;;5053783;28;20072;-72
2023/12/07 13:21:10;;;;;;;15.43;9.35;;;;;;;;;;5053119;28;20041;-72
2023/12/07 13:23:38;;;;;;;13.38;8.23;;;;;;;;;;5053403;28;20501;-72
2023/12/07 13:26:06;;;;;;;19.58;11.30;;;;;;;;;;5035845;28;20405;-72
2023/12/07 13:28:34;;;;;;;21.67;12.82;;;;;;;;;;5053581;28;20041;-72
2023/12/07 13:31:02;;;;;;;18.48;11.75;;;;;;;;;;5053560;28;20490;-72
2023/12/07 13:33:30;;;;;;;13.10;7.93;;;;;;;;;;5053666;28;20087;-72
2023/12/07 13:36:09;;;;;;;14.45;8.80;;;;;;;;;;5053431;28;20037;-73
2023/12/07 13:38:37;;;;;;;24.40;13.05;;;;;;;;;;5053387;28;20064;-72
2023/12/07 13:41:04;;;;;;;18.15;10.05;;;;;;;;;;5053403;28;20068;-72
2023/12/07 13:43:33;;;;;;;30.75;12.93;;;;;;;;;;5053242;28;20051;-71
2023/12/07 13:46:01;;;;;;;20.85;10.88;;;;;;;;;;5053391;28;20112;-72
2023/12/07 13:48:28;;;;;;;18.60;10.85;;;;;;;;;;5053098;28;20040;-71
2023/12/07 13:50:56;;;;;;;22.52;12.85;;;;;;;;;;5053244;28;20041;-72
2023/12/07 13:53:24;;;;;;;22.55;12.43;;;;;;;;;;5053089;28;20053;-71
2023/12/07 13:55:51;;;;;;;15.75;9.30;;;;;;;;;;5053152;28;20068;-71
2023/12/07 13:58:19;;;;;;;14.02;9.50;;;;;;;;;;5053067;28;20098;-72
2023/12/07 14:00:46;;;;;;;13.63;9.40;;;;;;;;;;5052910;28;20045;-72
2023/12/07 14:03:14;;;;;;;12.93;9.13;;;;;;;;;;5052854;28;20483;-72
2023/12/07 14:05:41;;;;;;;14.52;9.48;;;;;;;;;;5052894;28;20044;-72
2023/12/07 14:08:09;;;;;;;16.00;9.93;;;;;;;;;;5052782;28;20116;-72
2023/12/07 14:10:37;;;;;;;15.30;10.07;;;;;;;;;;5052743;28;20051;-71
2023/12/07 14:13:04;;;;;;;13.05;8.48;;;;;;;;;;5052834;28;20053;-71
2023/12/07 14:15:35;;;;;;;12.30;8.13;;;;;;;;;;5052691;28;20041;-71
2023/12/07 14:18:12;;;;;;;14.30;9.50;;;;;;;;;;5052668;28;20068;-71
2023/12/07 14:20:42;;;;;;;16.83;10.73;;;;;;;;;;5035028;28;20498;-71
2023/12/07 14:23:30;;;;;;;12.85;7.68;;;;;;;;;;5052716;28;20426;-71
2023/12/07 14:26:01;;;;;;;14.88;8.63;;;;;;;;;;5052531;28;20116;-71
2023/12/07 14:28:33;;;;;;;11.82;7.35;;;;;;;;;;5052502;28;20450;-71
2023/12/07 14:31:02;;;;;;;17.95;11.70;;;;;;;;;;5052529;28;20107;-70
2023/12/07 14:33:29;;;;;;;12.45;8.50;;;;;;;;;;5050751;28;20041;-70